Terminal Aerodrome Forecast
Issued by NWS Shreveport, LA

Home | Current Version | Previous Version | Text Only | Print | Product List | Glossary On
Versions: 1 2 3 4 5 6 7 8 9 10 11 12 13 14 15 16 17 18 19 20 21 22
000
FTUS44 KSHV 042300
TAFTXK
TAF
KTXK 042340Z 0500/0524 04015G25KT P6SM -RA OVC010
      TEMPO 0500/0502 2SM TSRA BR SCT010 OVC020CB
     FM050900 03012G20KT 5SM -FZRA BR OVC015
     FM051300 04012KT 5SM -SN OVC020
     FM051500 04008KT P6SM BKN030=

USA.gov is the U.S. government's official web portal to all federal, state and local government web resources and services.